createdAt,value
2019-03-24T00:04:20.312Z,30.60
2019-03-24T00:07:10.662Z,32.70
2019-03-24T00:10:00.992Z,31.13
2019-03-24T00:12:51.340Z,32.17
2019-03-24T00:15:41.676Z,31.10
2019-03-24T00:18:31.985Z,30.70
2019-03-24T00:21:22.329Z,31.70
2019-03-24T00:24:12.723Z,33.13
2019-03-24T00:27:03.054Z,31.07
2019-03-24T00:29:57.022Z,30.20
2019-03-24T00:32:28.884Z,32.93
2019-03-24T00:35:19.232Z,32.90
2019-03-24T00:38:09.578Z,40.90
2019-03-24T00:41:00.046Z,45.97
2019-03-24T00:43:50.368Z,40.97
2019-03-24T00:46:23.070Z,45.00
2019-03-24T00:48:55.613Z,38.57
2019-03-24T00:51:45.962Z,39.17
2019-03-24T00:54:16.922Z,42.43
2019-03-24T00:57:07.267Z,45.30
2019-03-24T00:59:57.626Z,45.07
2019-03-24T01:02:47.960Z,40.13
2019-03-24T01:05:38.313Z,50.53
2019-03-24T01:08:28.675Z,42.73
2019-03-24T01:11:19.021Z,43.20
2019-03-24T01:14:09.405Z,43.33
2019-03-24T01:16:59.732Z,49.73
2019-03-24T01:19:50.080Z,47.73
2019-03-24T01:22:40.634Z,44.13
2019-03-24T01:25:30.961Z,48.93
2019-03-24T01:28:21.285Z,44.90
2019-03-24T01:31:11.636Z,44.23
2019-03-24T01:33:42.577Z,56.20
2019-03-24T01:36:32.910Z,48.90
2019-03-24T01:39:23.250Z,48.63
2019-03-24T01:42:13.569Z,46.83
2019-03-24T01:45:03.959Z,46.00
2019-03-24T01:47:54.357Z,47.50
2019-03-24T01:50:44.706Z,51.13
2019-03-24T01:53:35.083Z,49.93
2019-03-24T01:56:25.393Z,48.30
2019-03-24T01:59:15.726Z,52.50
2019-03-24T02:02:06.075Z,57.27
2019-03-24T02:04:56.397Z,48.10
2019-03-24T02:07:46.703Z,52.67
2019-03-24T02:10:37.073Z,52.60
2019-03-24T02:13:27.390Z,54.13
2019-03-24T02:16:17.815Z,55.90
2019-03-24T02:19:08.121Z,50.40
2019-03-24T02:21:58.474Z,51.30
2019-03-24T02:27:39.431Z,49.53
2019-03-24T02:30:10.655Z,54.03
2019-03-24T02:33:01.001Z,49.00
2019-03-24T02:35:51.317Z,52.53
2019-03-24T02:38:41.661Z,51.87
2019-03-24T02:41:31.988Z,47.83
2019-03-24T02:44:22.328Z,51.17
2019-03-24T02:47:12.670Z,53.50
2019-03-24T02:50:03.052Z,48.07
2019-03-24T02:52:53.378Z,57.67
2019-03-24T02:55:43.715Z,44.67
2019-03-24T02:58:14.679Z,49.10
2019-03-24T03:01:05.085Z,53.83
2019-03-24T03:03:55.413Z,47.93
2019-03-24T03:06:45.808Z,51.30
2019-03-24T03:09:36.120Z,47.63
2019-03-24T03:15:43.172Z,49.93
2019-03-24T03:18:14.160Z,44.07
2019-03-24T03:21:04.514Z,49.93
2019-03-24T03:23:54.801Z,50.63
2019-03-24T03:26:45.142Z,53.63
2019-03-24T03:29:35.496Z,46.97
2019-03-24T03:32:25.862Z,50.83
2019-03-24T03:35:16.279Z,53.30
2019-03-24T03:37:48.858Z,52.23
2019-03-24T03:40:39.148Z,50.97
2019-03-24T03:43:29.491Z,54.00
2019-03-24T03:46:19.782Z,60.07
2019-03-24T03:49:10.116Z,53.60
2019-03-24T03:52:00.428Z,51.57
2019-03-24T03:54:50.788Z,47.53
2019-03-24T03:57:21.680Z,47.70
2019-03-24T04:03:15.779Z,51.90
2019-03-24T04:06:06.125Z,48.80
2019-03-24T04:08:56.451Z,51.27
2019-03-24T04:11:46.805Z,50.10
2019-03-24T04:14:37.138Z,50.00
2019-03-24T04:17:27.484Z,45.73
2019-03-24T04:20:17.797Z,55.33
2019-03-24T04:23:08.119Z,49.43
2019-03-24T04:25:58.505Z,52.20
2019-03-24T04:28:48.834Z,53.20
2019-03-24T04:31:39.149Z,49.27
2019-03-24T04:34:10.169Z,50.73
2019-03-24T04:37:00.533Z,47.77
2019-03-24T04:39:50.894Z,51.53
2019-03-24T04:42:41.210Z,54.37
2019-03-24T04:45:19.696Z,53.37
2019-03-24T04:48:10.023Z,54.27
2019-03-24T04:51:00.385Z,53.07
2019-03-24T04:53:50.690Z,52.93
2019-03-24T04:56:41.075Z,49.67
2019-03-24T04:59:12.008Z,55.47
2019-03-24T05:02:02.380Z,51.60
2019-03-24T05:04:52.685Z,53.10
2019-03-24T05:07:43.223Z,52.13
2019-03-24T05:10:35.742Z,54.47
2019-03-24T05:13:26.087Z,53.10
2019-03-24T05:16:16.439Z,49.97
2019-03-24T05:19:06.761Z,52.40
2019-03-24T05:21:57.068Z,56.57
2019-03-24T05:24:47.421Z,55.57
2019-03-24T05:27:37.746Z,54.20
2019-03-24T05:30:28.111Z,52.80
2019-03-24T05:33:18.461Z,54.00
2019-03-24T05:36:08.793Z,45.70
2019-03-24T05:38:59.121Z,52.03
2019-03-24T05:41:49.489Z,50.40
2019-03-24T05:44:39.836Z,51.03
2019-03-24T05:47:37.160Z,48.10
2019-03-24T05:50:22.293Z,52.50
2019-03-24T05:53:12.594Z,50.60
2019-03-24T05:55:45.145Z,51.27
2019-03-24T05:58:35.492Z,54.67
2019-03-24T06:01:25.801Z,49.93
2019-03-24T06:04:16.152Z,49.83
2019-03-24T06:07:06.453Z,50.03
2019-03-24T06:09:56.770Z,53.20
2019-03-24T06:12:47.066Z,52.00
2019-03-24T06:15:37.479Z,48.70
2019-03-24T06:18:27.801Z,52.50
2019-03-24T06:21:00.402Z,51.27
2019-03-24T06:23:31.318Z,55.40
2019-03-24T06:26:21.722Z,50.60
2019-03-24T06:29:12.014Z,50.70
2019-03-24T06:32:02.411Z,49.47
2019-03-24T06:34:52.701Z,54.50
2019-03-24T06:37:43.073Z,55.20
2019-03-24T06:40:33.393Z,52.90
2019-03-24T06:43:23.724Z,56.13
2019-03-24T06:46:15.050Z,55.90
2019-03-24T06:48:57.458Z,59.00
2019-03-24T06:51:47.810Z,58.20
2019-03-24T06:54:38.154Z,61.73
2019-03-24T06:57:28.475Z,67.73
2019-03-24T07:00:18.916Z,68.10
2019-03-24T07:03:09.252Z,67.60
2019-03-24T07:05:59.593Z,66.30
2019-03-24T07:08:30.539Z,72.07
2019-03-24T07:11:20.879Z,72.30
2019-03-24T07:14:11.303Z,71.20
2019-03-24T07:17:01.637Z,68.20
2019-03-24T07:19:51.719Z,69.77
2019-03-24T07:22:42.110Z,71.33
2019-03-24T07:25:32.496Z,65.53
2019-03-24T07:28:24.871Z,62.77
2019-03-24T07:31:06.675Z,68.33
2019-03-24T07:33:57.184Z,70.33
2019-03-24T07:36:47.582Z,65.13
2019-03-24T07:39:37.965Z,80.17
2019-03-24T07:42:28.312Z,72.50
2019-03-24T07:45:18.683Z,75.43
2019-03-24T07:48:18.625Z,70.87
2019-03-24T07:50:47.282Z,67.43
2019-03-24T07:53:37.644Z,73.27
2019-03-24T07:56:27.975Z,63.83
2019-03-24T07:59:18.288Z,60.03
2019-03-24T08:01:49.228Z,71.60
2019-03-24T08:04:39.562Z,78.50
2019-03-24T08:07:29.904Z,66.23
2019-03-24T08:10:20.269Z,77.30
2019-03-24T08:12:51.440Z,69.83
2019-03-24T08:15:41.760Z,70.83
2019-03-24T08:18:32.591Z,65.33
2019-03-24T08:21:22.911Z,64.40
2019-03-24T08:24:24.318Z,72.10
2019-03-24T08:26:56.977Z,67.40
2019-03-24T08:29:27.955Z,67.77
2019-03-24T08:32:18.274Z,76.20
2019-03-24T08:35:08.643Z,73.73
2019-03-24T08:37:58.969Z,69.00
2019-03-24T08:40:49.326Z,66.00
2019-03-24T08:43:39.646Z,68.10
2019-03-24T08:46:30.009Z,62.57
2019-03-24T08:49:20.327Z,63.70
2019-03-24T08:52:10.681Z,72.03
2019-03-24T08:55:01.004Z,64.40
2019-03-24T08:57:51.386Z,64.47
2019-03-24T09:00:41.709Z,68.43
2019-03-24T09:03:32.777Z,64.00
2019-03-24T09:06:24.154Z,64.20
2019-03-24T09:09:14.631Z,74.07
2019-03-24T09:12:04.968Z,61.97
2019-03-24T09:14:55.318Z,68.60
2019-03-24T09:17:45.733Z,66.50
2019-03-24T09:20:41.527Z,64.27
2019-03-24T09:23:28.210Z,64.87
2019-03-24T09:26:18.599Z,75.03
2019-03-24T09:29:08.921Z,68.63
2019-03-24T09:31:59.307Z,69.23
2019-03-24T09:34:49.618Z,79.67
2019-03-24T09:37:39.981Z,75.60
2019-03-24T09:40:33.911Z,70.80
2019-03-24T09:43:24.348Z,71.20
2019-03-24T09:46:16.970Z,71.43
2019-03-24T09:49:07.468Z,70.40
2019-03-24T09:51:57.779Z,70.63
2019-03-24T09:54:48.167Z,72.07
2019-03-24T09:57:38.482Z,72.73
2019-03-24T10:00:29.122Z,67.07
2019-03-24T10:03:19.468Z,72.37
2019-03-24T10:06:09.936Z,69.73
2019-03-24T10:09:00.250Z,68.53
2019-03-24T10:11:50.774Z,70.63
2019-03-24T10:14:41.135Z,75.57
2019-03-24T10:17:31.508Z,70.03
2019-03-24T10:20:21.886Z,75.07
2019-03-24T10:23:12.255Z,68.13
2019-03-24T10:26:02.647Z,75.57
2019-03-24T10:28:33.606Z,68.00
2019-03-24T10:31:04.604Z,79.07
2019-03-24T10:33:35.534Z,79.27
2019-03-24T10:36:06.534Z,69.93
2019-03-24T10:38:56.870Z,78.80
2019-03-24T10:41:47.231Z,73.60
2019-03-24T10:44:37.525Z,72.53
2019-03-24T10:47:08.489Z,75.03
2019-03-24T10:49:58.830Z,76.87
2019-03-24T10:52:49.198Z,73.30
2019-03-24T10:55:39.512Z,74.00
2019-03-24T10:58:30.007Z,70.33
2019-03-24T11:01:20.395Z,70.63
2019-03-24T11:04:10.977Z,75.20
2019-03-24T11:07:01.299Z,72.83
2019-03-24T11:09:51.663Z,72.80
2019-03-24T11:12:41.990Z,80.33
2019-03-24T11:15:32.376Z,73.50
2019-03-24T11:18:22.671Z,77.30
2019-03-24T11:21:13.059Z,66.97
2019-03-24T11:24:03.343Z,74.60
2019-03-24T11:26:53.732Z,77.30
2019-03-24T11:29:24.730Z,72.93
2019-03-24T11:32:15.088Z,69.47
2019-03-24T11:35:05.482Z,68.70
2019-03-24T11:37:55.821Z,74.93
2019-03-24T11:40:46.265Z,81.37
2019-03-24T11:43:36.569Z,79.20
2019-03-24T11:46:26.944Z,76.70
2019-03-24T11:49:45.719Z,72.87
2019-03-24T11:52:20.069Z,73.67
2019-03-24T11:58:45.150Z,74.73
2019-03-24T12:01:38.419Z,71.10
2019-03-24T12:04:37.895Z,75.57
2019-03-24T12:07:28.258Z,68.10
2019-03-24T12:10:18.705Z,70.70
2019-03-24T12:13:09.039Z,72.80
2019-03-24T12:15:59.418Z,72.23
2019-03-24T12:18:49.735Z,68.13
2019-03-24T12:21:40.132Z,64.30
2019-03-24T12:24:30.450Z,59.90
2019-03-24T12:27:20.826Z,64.67
2019-03-24T12:33:46.158Z,63.70
2019-03-24T12:36:36.486Z,63.97
2019-03-24T12:39:26.889Z,59.20
2019-03-24T12:42:17.261Z,63.77
2019-03-24T12:47:52.100Z,58.03
2019-03-24T12:50:42.454Z,60.93
2019-03-24T12:53:32.830Z,52.50
2019-03-24T12:56:23.142Z,58.90
2019-03-24T12:59:13.530Z,51.80
2019-03-24T13:02:03.989Z,58.27
2019-03-24T13:04:54.352Z,55.77
2019-03-24T13:07:44.665Z,53.60
2019-03-24T13:10:35.096Z,57.33
2019-03-24T13:13:25.395Z,58.27
2019-03-24T13:16:15.776Z,51.93
2019-03-24T13:19:06.081Z,54.90
2019-03-24T13:21:56.447Z,50.60
2019-03-24T13:24:27.420Z,56.03
2019-03-24T13:26:58.368Z,57.03
2019-03-24T13:29:30.923Z,61.17
2019-03-24T13:32:21.258Z,55.07
2019-03-24T13:35:11.685Z,49.67
2019-03-24T13:38:02.119Z,53.77
2019-03-24T13:40:52.450Z,50.60
2019-03-24T13:43:23.365Z,50.37
2019-03-24T13:46:13.690Z,46.93
2019-03-24T13:49:04.021Z,50.57
2019-03-24T13:51:54.340Z,47.70
2019-03-24T13:54:44.702Z,48.20
2019-03-24T13:57:15.787Z,51.17
2019-03-24T14:03:23.147Z,44.40
2019-03-24T14:06:13.547Z,46.37
2019-03-24T14:11:48.096Z,45.20
2019-03-24T14:14:38.525Z,41.93
2019-03-24T14:17:28.948Z,45.67
2019-03-24T14:19:59.894Z,44.73
2019-03-24T14:22:50.299Z,49.57
2019-03-24T14:25:40.588Z,44.70
2019-03-24T14:28:31.010Z,45.60
2019-03-24T14:31:03.570Z,47.90
2019-03-24T14:33:53.945Z,44.67
2019-03-24T14:36:44.238Z,46.60
2019-03-24T14:39:15.275Z,48.53
2019-03-24T14:41:46.201Z,48.53
2019-03-24T14:44:17.219Z,47.30
2019-03-24T14:47:07.504Z,42.37
2019-03-24T14:49:57.851Z,50.17
2019-03-24T14:52:48.175Z,43.67
2019-03-24T14:55:38.518Z,46.07
2019-03-24T14:58:28.816Z,45.03
2019-03-24T15:01:19.155Z,47.47
2019-03-24T15:04:09.521Z,51.40
2019-03-24T15:06:59.908Z,48.80
2019-03-24T15:09:50.258Z,47.30
2019-03-24T15:12:40.561Z,52.73
2019-03-24T15:15:41.890Z,46.07
2019-03-24T15:18:14.722Z,54.83
2019-03-24T15:20:45.723Z,44.07
2019-03-24T15:23:36.078Z,44.13
2019-03-24T15:26:26.548Z,45.70
2019-03-24T15:29:16.864Z,47.23
2019-03-24T15:32:07.251Z,46.70
2019-03-24T15:34:57.582Z,46.23
2019-03-24T15:37:47.970Z,46.03
2019-03-24T15:40:38.296Z,49.30
2019-03-24T15:43:28.731Z,47.40
2019-03-24T15:46:19.076Z,45.80
2019-03-24T15:49:09.431Z,50.23
2019-03-24T15:51:59.727Z,46.83
2019-03-24T15:54:50.098Z,47.57
2019-03-24T15:57:40.429Z,49.67
2019-03-24T16:00:49.620Z,49.90
2019-03-24T16:03:39.970Z,45.73
2019-03-24T16:06:30.354Z,45.80
2019-03-24T16:09:20.674Z,50.23
2019-03-24T16:11:53.324Z,51.20
2019-03-24T16:14:43.635Z,50.00
2019-03-24T16:17:34.023Z,50.37
2019-03-24T16:20:24.357Z,50.30
2019-03-24T16:23:14.752Z,53.13
2019-03-24T16:26:05.070Z,53.30
2019-03-24T16:28:55.442Z,58.77
2019-03-24T16:31:26.397Z,56.17
2019-03-24T16:34:16.745Z,50.40
2019-03-24T16:37:07.052Z,58.67
2019-03-24T16:39:57.394Z,62.40
2019-03-24T16:42:47.729Z,57.67
2019-03-24T16:45:38.046Z,59.07
2019-03-24T16:48:36.401Z,53.03
2019-03-24T16:51:06.562Z,56.10
2019-03-24T16:53:56.933Z,56.30
2019-03-24T16:56:47.329Z,54.00
2019-03-24T16:59:37.624Z,55.70
2019-03-24T17:02:28.081Z,58.43
2019-03-24T17:05:18.429Z,63.07
2019-03-24T17:08:08.776Z,64.87
2019-03-24T17:10:59.128Z,56.50
2019-03-24T17:13:30.068Z,59.07
2019-03-24T17:16:20.462Z,56.93
2019-03-24T17:18:51.393Z,59.47
2019-03-24T17:21:49.899Z,60.37
2019-03-24T17:24:34.440Z,58.77
2019-03-24T17:27:24.767Z,55.57
2019-03-24T17:30:15.110Z,59.10
2019-03-24T17:33:05.481Z,52.83
2019-03-24T17:35:55.901Z,50.77
2019-03-24T17:38:26.874Z,45.23
2019-03-24T17:41:17.238Z,43.80
2019-03-24T17:44:07.607Z,43.57
2019-03-24T17:46:57.893Z,38.63
2019-03-24T17:49:48.253Z,42.63
2019-03-24T17:52:38.545Z,42.43
2019-03-24T17:55:30.974Z,42.47
2019-03-24T17:58:20.931Z,35.30
2019-03-24T18:01:11.266Z,39.50
2019-03-24T18:04:01.574Z,45.70
2019-03-24T18:06:51.945Z,38.80
2019-03-24T18:09:42.429Z,41.70
2019-03-24T18:12:32.800Z,38.53
2019-03-24T18:15:23.118Z,44.70
2019-03-24T18:18:13.480Z,40.70
2019-03-24T18:21:03.843Z,40.27
2019-03-24T18:23:54.218Z,42.43
2019-03-24T18:26:44.581Z,37.97
2019-03-24T18:29:15.594Z,42.25
2019-03-24T18:32:05.925Z,43.90
2019-03-24T18:34:38.539Z,41.17
2019-03-24T18:37:28.894Z,37.97
2019-03-24T18:40:19.298Z,40.97
2019-03-24T18:43:09.769Z,39.53
2019-03-24T18:46:00.119Z,43.10
2019-03-24T18:48:51.400Z,43.27
2019-03-24T18:51:41.790Z,40.63
2019-03-24T18:54:32.130Z,42.63
2019-03-24T18:57:22.616Z,45.83
2019-03-24T19:03:34.333Z,36.93
2019-03-24T19:06:24.741Z,37.50
2019-03-24T19:09:15.136Z,42.00
2019-03-24T19:12:05.597Z,42.90
2019-03-24T19:14:55.982Z,41.77
2019-03-24T19:17:46.325Z,43.00
2019-03-24T19:20:36.710Z,38.73
2019-03-24T19:23:27.107Z,42.60
2019-03-24T19:26:17.508Z,41.53
2019-03-24T19:29:07.868Z,42.57
2019-03-24T19:31:58.348Z,43.73
2019-03-24T19:34:48.689Z,42.23
2019-03-24T19:37:39.093Z,45.83
2019-03-24T19:40:50.261Z,51.77
2019-03-24T19:43:40.648Z,53.57
2019-03-24T19:46:30.991Z,63.50
2019-03-24T19:49:21.372Z,71.50
2019-03-24T19:52:11.724Z,65.60
2019-03-24T19:55:02.087Z,68.57
2019-03-24T19:57:52.432Z,67.30
2019-03-24T20:00:42.882Z,76.30
2019-03-24T20:03:14.169Z,78.57
2019-03-24T20:05:45.190Z,85.10
2019-03-24T20:08:17.900Z,81.43
2019-03-24T20:11:08.366Z,83.47
2019-03-24T20:13:58.799Z,81.93
2019-03-24T20:16:49.146Z,83.13
2019-03-24T20:19:39.443Z,90.47
2019-03-24T20:22:29.988Z,85.23
2019-03-24T20:25:20.321Z,84.37
2019-03-24T20:28:10.753Z,89.33
2019-03-24T20:31:01.109Z,91.27
2019-03-24T20:33:51.507Z,86.60
2019-03-24T20:36:41.868Z,90.90
2019-03-24T20:42:28.477Z,106.20
2019-03-24T20:45:18.864Z,92.03
2019-03-24T20:48:09.216Z,95.77
2019-03-24T20:50:59.590Z,93.13
2019-03-24T20:53:49.919Z,96.13
2019-03-24T20:56:40.288Z,90.17
2019-03-24T20:59:30.617Z,106.27
2019-03-24T21:02:21.023Z,97.30
2019-03-24T21:05:11.477Z,95.07
2019-03-24T21:08:01.856Z,101.20
2019-03-24T21:10:52.186Z,87.80
2019-03-24T21:13:45.160Z,92.47
2019-03-24T21:19:36.918Z,90.67
2019-03-24T21:22:27.309Z,98.20
2019-03-24T21:25:17.716Z,93.33
2019-03-24T21:28:08.177Z,92.87
2019-03-24T21:30:58.553Z,94.17
2019-03-24T21:33:48.858Z,96.90
2019-03-24T21:36:39.251Z,96.33
2019-03-24T21:39:29.598Z,89.93
2019-03-24T21:42:19.974Z,92.67
2019-03-24T21:45:10.327Z,106.17
2019-03-24T21:48:00.773Z,89.60
2019-03-24T21:50:51.091Z,86.87
2019-03-24T21:53:41.488Z,91.83
2019-03-24T21:56:14.340Z,96.00
2019-03-24T21:58:57.437Z,97.27
2019-03-24T22:01:47.775Z,101.20
2019-03-24T22:04:20.356Z,96.00
2019-03-24T22:07:10.799Z,96.43
2019-03-24T22:10:01.139Z,103.80
2019-03-24T22:12:51.497Z,88.43
2019-03-24T22:15:41.866Z,96.50
2019-03-24T22:18:32.241Z,101.20
2019-03-24T22:21:22.613Z,104.30
2019-03-24T22:24:12.995Z,94.53
2019-03-24T22:27:03.361Z,92.17
2019-03-24T22:29:53.692Z,91.87
2019-03-24T22:32:44.027Z,93.63
2019-03-24T22:35:34.408Z,88.27
2019-03-24T22:38:24.716Z,93.83
2019-03-24T22:41:15.601Z,100.80
2019-03-24T22:44:05.979Z,94.67
2019-03-24T22:46:56.328Z,89.23
2019-03-24T22:49:46.652Z,87.60
2019-03-24T22:52:37.031Z,92.53
2019-03-24T22:55:27.344Z,85.77
2019-03-24T22:58:17.719Z,78.50
2019-03-24T23:01:08.456Z,97.13
2019-03-24T23:03:40.397Z,85.57
2019-03-24T23:06:30.733Z,84.60
2019-03-24T23:09:21.062Z,85.00
2019-03-24T23:11:52.107Z,83.30
2019-03-24T23:14:42.428Z,85.03
2019-03-24T23:17:32.773Z,90.70
2019-03-24T23:20:23.130Z,86.30
2019-03-24T23:23:13.510Z,82.97
2019-03-24T23:26:04.095Z,91.07
2019-03-24T23:28:54.468Z,94.33
2019-03-24T23:31:44.804Z,98.03
2019-03-24T23:34:15.877Z,95.07
2019-03-24T23:37:06.194Z,100.10
2019-03-24T23:39:56.553Z,98.23
2019-03-24T23:42:46.862Z,96.80
2019-03-24T23:45:37.216Z,102.70
2019-03-24T23:48:27.520Z,92.60
2019-03-24T23:50:58.500Z,95.53
2019-03-24T23:53:48.804Z,91.97
2019-03-24T23:56:39.159Z,108.70
2019-03-24T23:59:29.457Z,86.90
